Time;durP1;ratioP1;P1;durP2;ratioP2;P2;SDS_P1;SDS_P2;PMS_P1;PMS_P2;Temp;Humidity;BMP_temperature;BMP_pressure;BME280_temperature;BME280_humidity;BME280_pressure;Samples;Min_cycle;Max_cycle;Signal;HPM_P1;HPM_P2
2022/02/07 00:00:46;;;;;;;3.95;0.47;;;;;;;11.60;48.67;100627.97;5057074;28;20104;-62
2022/02/07 00:03:54;;;;;;;5.18;0.57;;;;;;;11.51;48.73;100639.53;5057040;28;20099;-62
2022/02/07 00:06:06;;;;;;;3.70;0.22;;;;;;;11.39;48.85;100643.34;5053033;28;20033;-59
2022/02/07 00:08:34;;;;;;;1.35;0.38;;;;;;;11.33;48.82;100657.31;5056978;28;20031;-59
2022/02/07 00:10:59;;;;;;;2.50;0.22;;;;;;;11.29;49.24;100663.94;5056890;28;20047;-59
2022/02/07 00:13:25;;;;;;;2.38;0.30;;;;;;;11.22;49.45;100662.78;5022257;28;20499;-59
2022/02/07 00:15:50;;;;;;;3.60;0.85;;;;;;;11.19;48.98;100693.41;5056704;28;20025;-59
2022/02/07 00:18:16;;;;;;;4.13;0.60;;;;;;;11.14;49.51;100694.81;5039164;28;20048;-59
2022/02/07 00:20:42;;;;;;;1.92;0.60;;;;;;;11.17;48.95;100702.59;5039070;28;20021;-59
2022/02/07 00:23:08;;;;;;;2.28;0.88;;;;;;;11.14;49.16;100710.88;5056560;28;20564;-59
2022/02/07 00:25:34;;;;;;;0.93;0.52;;;;;;;11.17;49.40;100732.88;5056394;28;20025;-59
2022/02/07 00:27:59;;;;;;;2.20;0.32;;;;;;;11.13;49.53;100726.13;5056595;28;20513;-59
2022/02/07 00:30:24;;;;;;;3.30;0.55;;;;;;;11.17;48.98;100732.88;5056370;28;20387;-59
2022/02/07 00:32:50;;;;;;;5.20;0.95;;;;;;;11.18;48.83;100733.75;5056559;28;20039;-60
2022/02/07 00:35:18;;;;;;;6.05;1.17;;;;;;;11.18;49.44;100739.09;5056295;28;20438;-60
2022/02/07 00:37:45;;;;;;;6.63;0.85;;;;;;;11.18;49.25;100745.31;5039264;28;20102;-61
2022/02/07 00:42:51;;;;;;;6.90;0.77;;;;;;;11.19;49.16;100751.53;5056536;28;20106;-60
2022/02/07 00:45:37;;;;;;;4.45;0.63;;;;;;;11.24;48.97;100773.41;5054959;28;20158;-59
2022/02/07 00:48:11;;;;;;;3.08;0.50;;;;;;;11.27;49.28;100768.66;5055886;28;20034;-61
2022/02/07 00:50:39;;;;;;;8.07;0.95;;;;;;;11.29;49.33;100773.88;5056068;28;20476;-62
2022/02/07 00:53:05;;;;;;;2.72;0.60;;;;;;;11.28;49.61;100790.97;5056344;28;20378;-59
2022/02/07 00:55:31;;;;;;;3.35;0.85;;;;;;;11.32;49.43;100800.41;5055774;28;20021;-59
2022/02/07 00:57:57;;;;;;;10.48;0.88;;;;;;;11.34;49.15;100804.66;5038239;28;20039;-59
2022/02/07 01:00:22;;;;;;;9.57;0.80;;;;;;;11.34;49.32;100814.53;5055629;28;20025;-59
2022/02/07 01:02:47;;;;;;;10.40;1.17;;;;;;;11.35;48.74;100822.44;5055990;28;20456;-59
2022/02/07 01:05:14;;;;;;;4.70;0.80;;;;;;;11.36;49.24;100817.94;5055685;28;20017;-59
2022/02/07 01:07:47;;;;;;;1.85;0.95;;;;;;;11.38;49.38;100826.69;5055563;28;20025;-62
2022/02/07 01:10:15;;;;;;;1.73;0.57;;;;;;;11.39;48.93;100841.81;5055710;28;20532;-62
2022/02/07 01:57:56;;;;;;;6.38;0.70;;;;;;;11.50;48.32;101034.84;5054936;28;20383;-62
2022/02/07 02:00:22;;;;;;;6.72;1.10;;;;;;;11.59;48.97;101050.13;5036858;28;20024;-62
2022/02/07 02:02:47;;;;;;;6.32;1.40;;;;;;;11.60;48.02;101058.06;5053845;28;20546;-62
2022/02/07 02:05:14;;;;;;;7.85;1.10;;;;;;;11.64;48.59;101053.31;5054499;28;20024;-62
2022/02/07 02:07:40;;;;;;;7.55;1.75;;;;;;;11.64;48.62;101064.03;5054611;28;20025;-62
2022/02/07 02:10:06;;;;;;;11.00;1.70;;;;;;;11.62;48.02;101065.97;5036864;28;20032;-62
2022/02/07 02:12:36;;;;;;;1.75;0.73;;;;;;;11.57;48.88;101063.69;5054514;28;20078;-62
2022/02/07 02:15:20;;;;;;;7.53;0.70;;;;;;;11.57;48.56;101081.63;5054280;28;20082;-62
2022/02/07 02:21:18;;;;;;;4.30;0.70;;;;;;;11.52;48.65;101087.38;5054797;28;20066;-62
2022/02/07 02:47:45;;;;;;;2.85;0.77;;;;;;;11.76;47.89;101186.47;5038995;28;20055;-62
2022/02/07 02:50:27;;;;;;;5.20;0.88;;;;;;;11.78;48.00;101189.84;5035837;28;20049;-62
2022/02/07 02:52:54;;;;;;;6.32;1.05;;;;;;;11.78;47.63;101203.28;5053829;28;20021;-61
2022/02/07 02:55:20;;;;;;;1.88;0.95;;;;;;;11.79;47.74;101213.03;5053880;28;20033;-62
2022/02/07 02:57:45;;;;;;;6.43;0.82;;;;;;;11.79;48.45;101223.78;5053923;28;20494;-62
2022/02/07 03:00:11;;;;;;;4.18;0.50;;;;;;;11.79;48.22;101226.47;5054025;28;20115;-62
2022/02/07 03:02:36;;;;;;;2.08;0.60;;;;;;;11.76;47.82;101226.72;5053456;28;20410;-62
2022/02/07 03:05:02;;;;;;;4.80;0.77;;;;;;;11.82;47.81;101247.69;5035835;28;20031;-62
2022/02/07 03:07:28;;;;;;;2.67;0.90;;;;;;;11.81;47.88;101243.28;5053743;28;20064;-62
2022/02/07 03:09:55;;;;;;;7.35;0.82;;;;;;;11.84;47.76;101264.50;5035908;28;20052;-62
2022/02/07 03:12:21;;;;;;;6.20;0.73;;;;;;;11.85;48.09;101278.78;5054131;28;20032;-62
2022/02/07 03:14:48;;;;;;;6.22;0.88;;;;;;;11.88;47.95;101287.44;5053282;28;20074;-62
2022/02/07 03:17:13;;;;;;;4.45;0.77;;;;;;;11.87;47.57;101296.47;5053620;28;20029;-62
2022/02/07 03:19:39;;;;;;;5.47;1.25;;;;;;;11.89;47.69;101297.19;5053769;28;20039;-62
2022/02/07 03:22:05;;;;;;;5.82;1.60;;;;;;;11.91;47.64;101305.13;5035911;28;20035;-61
2022/02/07 03:24:31;;;;;;;6.68;1.05;;;;;;;11.93;47.15;101311.22;5053250;28;20037;-62
2022/02/07 03:26:56;;;;;;;4.22;1.40;;;;;;;11.94;47.52;101324.53;5035385;28;20440;-62
2022/02/07 03:29:21;;;;;;;7.03;0.75;;;;;;;11.95;48.20;101326.22;5053278;28;20431;-62
2022/02/07 03:31:47;;;;;;;8.98;0.98;;;;;;;11.97;47.46;101335.00;5053278;28;20074;-62
2022/02/07 03:34:12;;;;;;;3.17;1.42;;;;;;;11.98;47.76;101336.69;5053175;28;20478;-62
2022/02/07 03:36:39;;;;;;;7.32;0.68;;;;;;;11.97;47.06;101335.00;5053006;28;20028;-62
2022/02/07 03:39:06;;;;;;;3.17;1.42;;;;;;;11.98;47.24;101341.22;5053121;28;20024;-62
2022/02/07 03:41:31;;;;;;;5.90;1.05;;;;;;;11.95;47.64;101350.38;5035686;28;20047;-62
2022/02/07 03:43:57;;;;;;;2.58;0.60;;;;;;;11.97;48.16;101351.13;5053509;28;20472;-62
2022/02/07 03:46:23;;;;;;;6.00;0.77;;;;;;;12.00;48.13;101356.25;5053354;28;20029;-61
2022/02/07 03:48:48;;;;;;;9.10;1.08;;;;;;;11.98;47.59;101351.94;5052936;28;20123;-62
2022/02/07 03:51:13;;;;;;;3.63;1.10;;;;;;;11.98;48.08;101363.53;5035225;28;20021;-62
2022/02/07 03:53:39;;;;;;;5.70;0.85;;;;;;;11.97;47.22;101372.59;5052904;28;20040;-62
2022/02/07 03:56:05;;;;;;;6.63;1.00;;;;;;;11.94;47.63;101378.22;5053077;28;20086;-62
2022/02/07 03:58:31;;;;;;;7.10;0.88;;;;;;;11.91;47.67;101386.53;5053117;28;20036;-61
2022/02/07 04:00:57;;;;;;;6.55;0.73;;;;;;;11.91;47.61;101393.72;5052937;28;20032;-62
2022/02/07 04:03:26;;;;;;;7.82;1.10;;;;;;;11.90;47.51;101395.53;5035130;28;20025;-62
2022/02/07 04:06:01;;;;;;;10.02;1.15;;;;;;;11.85;47.31;101400.44;5053166;28;20025;-62
2022/02/07 04:08:37;;;;;;;4.32;0.55;;;;;;;11.88;47.49;101410.91;5051760;28;20040;-62
2022/02/07 04:11:12;;;;;;;8.55;1.38;;;;;;;11.85;47.88;101415.69;5053050;28;20029;-62
2022/02/07 04:13:40;;;;;;;5.15;1.48;;;;;;;11.82;47.65;101435.56;5036645;28;20040;-62
2022/02/07 04:16:06;;;;;;;4.18;0.55;;;;;;;11.81;47.52;101441.06;5053126;28;20487;-62
2022/02/07 04:18:46;;;;;;;10.30;1.45;;;;;;;11.78;47.27;101447.50;5052989;28;20033;-62
2022/02/07 04:21:11;;;;;;;9.38;1.20;;;;;;;11.76;47.76;101448.59;5037154;28;20037;-62
2022/02/07 04:23:36;;;;;;;6.45;1.05;;;;;;;11.74;47.48;101456.78;5052658;28;20052;-62
2022/02/07 04:26:02;;;;;;;1.92;1.23;;;;;;;11.63;47.53;101449.56;5054508;28;20021;-62
2022/02/07 04:28:27;;;;;;;4.97;0.90;;;;;;;11.65;47.47;101468.22;5056328;28;20108;-61
2022/02/07 04:30:52;;;;;;;9.68;0.75;;;;;;;11.60;47.83;101475.78;5056184;28;20037;-62
2022/02/07 04:33:18;;;;;;;13.13;1.40;;;;;;;11.59;48.07;101490.16;5056278;28;20040;-62
2022/02/07 04:35:43;;;;;;;3.10;1.13;;;;;;;11.56;48.11;101491.25;5055999;28;20139;-62
2022/02/07 04:38:08;;;;;;;6.28;0.77;;;;;;;11.55;48.11;101499.44;5038253;28;20111;-62
2022/02/07 04:40:34;;;;;;;4.53;1.13;;;;;;;11.50;48.24;101496.25;5056176;28;20021;-62
2022/02/07 04:42:59;;;;;;;8.02;1.25;;;;;;;11.53;47.44;101512.13;5038207;28;20033;-62
2022/02/07 05:01:13;;;;;;;6.60;0.75;;;;;;;11.48;47.71;101565.25;5055814;28;20035;-62
2022/02/07 05:03:53;;;;;;;7.80;1.13;;;;;;;11.49;48.30;101570.50;5055662;28;20025;-62
2022/02/07 05:14:32;;;;;;;8.90;1.27;;;;;;;11.49;47.50;101583.06;5040481;28;20101;-62
2022/02/07 05:16:58;;;;;;;9.13;0.80;;;;;;;11.51;47.70;101589.16;5038150;28;20028;-62
2022/02/07 05:19:24;;;;;;;12.90;1.13;;;;;;;11.47;47.17;101583.16;5055628;28;20028;-62
2022/02/07 05:21:50;;;;;;;11.75;1.55;;;;;;;11.52;47.97;101598.94;5055335;28;20130;-62
2022/02/07 05:24:16;;;;;;;3.45;1.17;;;;;;;11.49;48.28;101600.03;5037900;28;20398;-62
2022/02/07 05:26:42;;;;;;;8.85;1.48;;;;;;;11.54;47.70;101621.13;5055250;28;20029;-62
2022/02/07 05:29:08;;;;;;;11.07;0.95;;;;;;;11.55;48.17;101615.66;5053893;28;20029;-62
2022/02/07 05:31:34;;;;;;;5.10;0.65;;;;;;;11.56;47.67;101635.28;5055323;28;20435;-62
2022/02/07 05:33:59;;;;;;;10.60;1.38;;;;;;;11.58;47.86;101642.25;5055490;28;20025;-62
2022/02/07 05:36:25;;;;;;;5.78;1.77;;;;;;;11.59;47.86;101641.28;5054382;28;20036;-62
2022/02/07 05:38:54;;;;;;;13.68;2.90;;;;;;;11.61;47.59;101650.06;5054666;28;20056;-62
2022/02/07 05:41:20;;;;;;;5.90;0.73;;;;;;;11.64;47.55;101649.00;5055306;28;20532;-62
2022/02/07 05:43:47;;;;;;;6.63;1.15;;;;;;;11.65;47.82;101658.75;5055247;28;20033;-62
2022/02/07 05:46:13;;;;;;;4.85;1.00;;;;;;;11.68;47.34;101658.50;5055068;28;20463;-62
2022/02/07 05:48:39;;;;;;;5.85;0.80;;;;;;;11.70;47.70;101667.31;5054812;28;20064;-62
2022/02/07 05:51:04;;;;;;;4.53;0.85;;;;;;;11.71;47.26;101663.69;5054575;28;20025;-62
2022/02/07 05:53:29;;;;;;;9.57;1.00;;;;;;;11.75;47.37;101667.00;5054656;28;20426;-62
2022/02/07 05:55:55;;;;;;;7.97;1.02;;;;;;;11.75;47.72;101677.72;5054618;28;20108;-62
2022/02/07 05:58:20;;;;;;;8.68;1.20;;;;;;;11.76;47.36;101669.56;5036912;28;20064;-62
2022/02/07 06:00:46;;;;;;;5.13;0.93;;;;;;;11.76;47.29;101674.91;5054547;28;20056;-62
2022/02/07 06:03:11;;;;;;;6.65;1.00;;;;;;;11.77;48.42;101675.78;5054411;28;20036;-62
2022/02/07 06:05:37;;;;;;;10.43;1.38;;;;;;;11.74;47.53;101687.59;5054649;28;20028;-62
2022/02/07 06:08:02;;;;;;;7.85;0.82;;;;;;;11.71;47.46;101713.81;5036786;28;20028;-62
2022/02/07 06:10:27;;;;;;;7.47;0.95;;;;;;;11.68;47.94;101715.72;5054542;28;20036;-62
2022/02/07 06:12:53;;;;;;;4.53;1.10;;;;;;;11.64;47.37;101716.09;5054244;28;20495;-62
2022/02/07 06:15:18;;;;;;;6.35;0.75;;;;;;;11.68;47.20;101726.47;5054196;28;20108;-62
2022/02/07 06:17:48;;;;;;;9.52;1.00;;;;;;;11.71;48.02;101730.78;5036748;28;20032;-62
2022/02/07 06:20:14;;;;;;;6.22;1.13;;;;;;;11.71;47.85;101733.47;5054521;28;20036;-62
2022/02/07 06:22:39;;;;;;;8.60;1.30;;;;;;;11.75;47.50;101743.00;5036288;28;20032;-61
2022/02/07 06:25:05;;;;;;;7.88;0.82;;;;;;;11.79;48.00;101733.75;5054174;28;20063;-62
2022/02/07 06:27:30;;;;;;;5.68;1.17;;;;;;;11.81;47.33;101747.91;5054093;28;20064;-62
2022/02/07 06:29:55;;;;;;;6.07;1.50;;;;;;;11.79;47.87;101752.53;5054156;28;20082;-62
2022/02/07 06:32:21;;;;;;;3.15;1.40;;;;;;;11.83;48.17;101753.16;5053908;28;20440;-62
2022/02/07 06:34:46;;;;;;;9.10;1.85;;;;;;;11.87;47.98;101755.50;5053771;28;20423;-62
2022/02/07 06:37:11;;;;;;;13.73;1.30;;;;;;;11.91;47.39;101759.69;5053955;28;20025;-62
2022/02/07 06:39:37;;;;;;;4.75;0.98;;;;;;;11.93;47.46;101772.97;5054073;28;20463;-62
2022/02/07 06:42:03;;;;;;;6.18;1.33;;;;;;;11.92;47.89;101782.84;5053946;28;20056;-62
2022/02/07 06:44:28;;;;;;;4.07;1.10;;;;;;;11.95;47.49;101788.00;5054048;28;20043;-62
2022/02/07 06:46:54;;;;;;;14.05;1.35;;;;;;;11.90;47.10;101787.47;5036035;28;20017;-62
2022/02/07 06:49:20;;;;;;;5.75;1.02;;;;;;;11.95;47.14;101793.38;5053337;28;20102;-61
2022/02/07 06:51:45;;;;;;;4.28;0.80;;;;;;;11.95;47.21;101806.78;5053740;28;20122;-62
2022/02/07 06:54:11;;;;;;;5.88;0.82;;;;;;;11.97;46.81;101823.66;5035740;28;20029;-62
2022/02/07 06:56:36;;;;;;;11.45;1.38;;;;;;;11.98;47.50;101825.34;5053625;28;20539;-62
2022/02/07 06:59:02;;;;;;;12.88;1.70;;;;;;;11.98;46.94;101825.34;5053833;28;20020;-62
2022/02/07 07:01:29;;;;;;;3.10;0.98;;;;;;;11.97;47.64;101831.72;5036375;28;20079;-62
2022/02/07 07:03:54;;;;;;;9.55;1.35;;;;;;;11.96;46.81;101824.63;5053631;28;20025;-62
2022/02/07 07:06:19;;;;;;;3.70;1.50;;;;;;;11.95;47.66;101836.31;5053860;28;20074;-62
2022/02/07 07:08:49;;;;;;;11.27;1.35;;;;;;;11.87;46.72;101841.41;5053506;28;20031;-62
2022/02/07 07:11:18;;;;;;;10.38;1.17;;;;;;;11.89;47.09;101857.41;5053486;28;20032;-62
2022/02/07 07:13:50;;;;;;;3.70;1.13;;;;;;;11.86;47.51;101858.50;5053476;28;20021;-62
2022/02/07 07:18:53;;;;;;;5.97;1.27;;;;;;;11.83;47.11;101890.06;5053278;28;20491;-62
2022/02/07 07:21:19;;;;;;;6.40;2.28;;;;;;;11.83;47.40;101893.63;5053327;28;20180;-62
2022/02/07 07:23:45;;;;;;;9.50;1.88;;;;;;;11.83;47.90;101898.13;5053248;28;20068;-62
2022/02/07 07:26:10;;;;;;;12.18;1.35;;;;;;;11.83;47.34;101906.19;5053101;28;20040;-62
2022/02/07 07:28:37;;;;;;;4.97;1.20;;;;;;;11.84;47.28;101914.09;5053630;28;20032;-62
2022/02/07 07:31:05;;;;;;;7.15;1.20;;;;;;;11.85;47.42;101909.59;5035880;28;20471;-62
2022/02/07 07:33:32;;;;;;;22.88;5.60;;;;;;;11.84;47.02;101903.38;5053322;28;20458;-62
2022/02/07 07:35:58;;;;;;;29.70;10.32;;;;;;;11.89;47.45;101914.63;5053041;28;20117;-62
2022/02/07 07:38:23;;;;;;;31.05;11.65;;;;;;;11.90;47.44;101919.03;5053364;28;20021;-62
2022/02/07 07:40:49;;;;;;;57.95;18.35;;;;;;;11.91;47.54;101933.31;5035605;28;20024;-62
2022/02/07 07:43:15;;;;;;;53.80;12.75;;;;;;;11.90;47.97;101929.78;5053077;28;20375;-62
2022/02/07 07:45:46;;;;;;;29.88;7.88;;;;;;;11.92;47.51;101937.75;5053060;28;20037;-62
2022/02/07 07:48:16;;;;;;;51.60;15.27;;;;;;;11.95;47.22;101935.66;5053023;28;20083;-61
2022/02/07 07:50:53;;;;;;;104.88;28.55;;;;;;;12.02;46.93;101939.63;5053090;28;20088;-62
2022/02/07 08:01:50;;;;;;;56.80;17.58;;;;;;;12.39;46.72;101990.69;5055785;28;20422;-62
2022/02/07 08:04:18;;;;;;;39.67;10.02;;;;;;;12.48;47.16;101998.06;5056663;28;20542;-62
2022/02/07 08:09:19;;;;;;;32.60;9.73;;;;;;;12.61;47.08;102006.94;5039415;28;20029;-62
2022/02/07 08:11:46;;;;;;;15.32;4.45;;;;;;;12.67;46.58;102017.25;5056624;28;20025;-62
2022/02/07 08:14:11;;;;;;;11.90;3.80;;;;;;;12.75;46.23;102015.72;5056573;28;20119;-62
2022/02/07 08:16:36;;;;;;;24.90;8.73;;;;;;;12.82;47.17;102026.84;5056387;28;20510;-62
2022/02/07 08:19:06;;;;;;;9.07;3.05;;;;;;;12.91;47.33;102034.22;5056466;28;20035;-62
2022/02/07 08:21:35;;;;;;;9.35;3.17;;;;;;;12.99;46.50;102034.50;5056698;28;20437;-62
2022/02/07 08:24:01;;;;;;;8.98;4.18;;;;;;;13.05;46.17;102042.13;5056450;28;20056;-62
2022/02/07 08:26:27;;;;;;;21.17;7.22;;;;;;;13.10;46.04;102042.66;5056475;28;20471;-62
2022/02/07 08:28:52;;;;;;;24.85;3.75;;;;;;;13.21;46.49;102061.53;5056527;28;20482;-62
2022/02/07 08:31:17;;;;;;;11.02;1.88;;;;;;;13.28;46.96;102068.19;5038969;28;20116;-62
2022/02/07 08:33:43;;;;;;;9.95;2.38;;;;;;;13.34;46.68;102085.72;5038618;28;20471;-62
2022/02/07 08:36:09;;;;;;;9.50;1.45;;;;;;;13.40;47.17;102094.16;5056491;28;20463;-62
2022/02/07 08:38:34;;;;;;;2.33;1.35;;;;;;;13.51;46.91;102095.19;5056072;28;20025;-62
2022/02/07 08:40:59;;;;;;;7.65;1.40;;;;;;;13.58;47.01;102099.13;5056093;28;20501;-62
2022/02/07 08:43:25;;;;;;;6.00;1.23;;;;;;;13.63;46.92;102089.72;5055912;28;20025;-62
2022/02/07 08:45:50;;;;;;;13.30;1.70;;;;;;;13.76;46.67;102089.63;5055821;28;20024;-62
2022/02/07 08:48:17;;;;;;;7.53;1.30;;;;;;;13.86;45.48;102080.72;5038380;28;20065;-62
2022/02/07 08:50:45;;;;;;;5.18;0.80;;;;;;;14.05;46.03;102085.50;5037962;28;20044;-62
2022/02/07 08:53:11;;;;;;;4.03;0.98;;;;;;;14.21;45.11;102088.72;5055875;28;20051;-62
2022/02/07 08:55:41;;;;;;;9.02;1.33;;;;;;;14.35;44.95;102099.28;5055637;28;20029;-62
2022/02/07 08:58:10;;;;;;;9.43;1.70;;;;;;;14.53;46.08;102097.81;5055995;28;20033;-62
2022/02/07 09:06:32;;;;;;;8.73;1.38;;;;;;;15.31;44.13;102111.13;5055935;28;20025;-62
2022/02/07 09:11:35;;;;;;;2.63;1.30;;;;;;;15.70;45.16;102090.75;5055275;28;20474;-62
2022/02/07 09:14:09;;;;;;;7.70;1.27;;;;;;;16.00;43.78;102103.44;5055470;28;20027;-62
2022/02/07 09:16:35;;;;;;;5.78;1.40;;;;;;;16.17;43.93;102110.94;5055565;28;20159;-62
2022/02/07 09:19:02;;;;;;;8.13;1.75;;;;;;;16.13;45.07;102107.69;5055473;28;20035;-62
2022/02/07 09:21:28;;;;;;;6.90;2.00;;;;;;;16.31;43.96;102116.00;5055694;28;20032;-62
2022/02/07 09:23:54;;;;;;;5.55;1.13;;;;;;;16.45;43.95;102118.34;5055382;28;20021;-62
2022/02/07 09:26:20;;;;;;;9.38;1.65;;;;;;;16.61;43.07;102121.44;5055549;28;20382;-62
2022/02/07 09:28:45;;;;;;;12.05;2.67;;;;;;;16.72;43.43;102124.03;5055624;28;20025;-62
2022/02/07 09:31:11;;;;;;;7.13;1.13;;;;;;;16.96;43.60;102137.22;5037593;28;20537;-62
2022/02/07 09:33:38;;;;;;;11.02;1.50;;;;;;;17.21;43.35;102130.44;5055237;28;20526;-63
2022/02/07 09:36:04;;;;;;;5.55;1.60;;;;;;;17.47;43.22;102147.88;5055294;28;20025;-62
2022/02/07 09:38:30;;;;;;;8.68;3.17;;;;;;;17.79;42.51;102158.44;5055268;28;20437;-62
2022/02/07 09:40:57;;;;;;;5.97;1.70;;;;;;;18.06;42.53;102171.28;5038054;28;20387;-63
2022/02/07 09:43:26;;;;;;;9.10;2.60;;;;;;;18.21;42.45;102186.09;5055469;28;20020;-62
2022/02/07 09:45:52;;;;;;;13.38;2.88;;;;;;;18.03;42.51;102173.25;5055222;28;20096;-63
2022/02/07 09:48:19;;;;;;;9.30;2.08;;;;;;;18.11;41.96;102185.25;5055138;28;20076;-63
2022/02/07 09:50:45;;;;;;;10.40;1.95;;;;;;;18.09;42.81;102187.28;5055042;28;20032;-63
2022/02/07 09:53:11;;;;;;;22.70;5.18;;;;;;;17.96;42.73;102183.00;5037355;28;20111;-62
2022/02/07 09:55:37;;;;;;;8.23;1.52;;;;;;;17.96;42.79;102193.84;5055113;28;20524;-63
2022/02/07 09:58:03;;;;;;;8.70;2.50;;;;;;;18.36;41.79;102203.63;5037107;28;20025;-63
2022/02/07 10:00:31;;;;;;;10.23;2.20;;;;;;;18.64;41.31;102196.44;5055466;28;20410;-63
2022/02/07 10:03:15;;;;;;;9.60;1.92;;;;;;;19.03;40.76;102209.72;5037790;28;20052;-63
2022/02/07 10:05:56;;;;;;;7.13;1.95;;;;;;;19.55;39.79;102205.44;5055358;28;20098;-63
2022/02/07 10:16:39;;;;;;;7.25;1.73;;;;;;;21.02;38.84;102222.75;5039002;28;20021;-63
2022/02/07 10:19:38;;;;;;;10.80;2.13;;;;;;;21.39;38.74;102241.50;5036547;28;20104;-63
2022/02/07 10:22:38;;;;;;;9.63;2.30;;;;;;;21.78;38.22;102252.69;5054327;28;20108;-63
2022/02/07 10:44:33;;;;;;;6.03;2.08;;;;;;;23.25;36.11;102307.16;5052992;28;20462;-63
2022/02/07 10:47:05;;;;;;;6.50;2.60;;;;;;;23.53;36.07;102295.63;5053604;28;20031;-63
2022/02/07 10:49:31;;;;;;;9.13;1.80;;;;;;;23.76;35.89;102282.84;5036678;28;20056;-63
2022/02/07 10:52:00;;;;;;;6.47;1.80;;;;;;;23.91;35.37;102293.03;5053533;28;20037;-63
2022/02/07 10:54:26;;;;;;;5.07;1.33;;;;;;;24.02;35.25;102309.91;5053438;28;20032;-63
2022/02/07 10:56:52;;;;;;;7.20;1.27;;;;;;;23.67;35.98;102305.81;5053412;28;20032;-63
2022/02/07 10:59:21;;;;;;;7.53;1.38;;;;;;;23.55;34.99;102306.38;5053660;28;20017;-63
2022/02/07 11:04:22;;;;;;;8.65;1.50;;;;;;;22.25;36.84;102319.34;5053546;28;20028;-63
2022/02/07 11:06:51;;;;;;;5.68;1.42;;;;;;;22.35;36.59;102333.69;5053516;28;20051;-63
2022/02/07 11:14:39;;;;;;;6.00;1.38;;;;;;;20.79;37.15;102341.47;5054058;28;20025;-63
2022/02/07 11:17:21;;;;;;;8.50;1.35;;;;;;;20.25;38.08;102332.50;5053503;28;20025;-63
2022/02/07 11:20:13;;;;;;;5.15;1.35;;;;;;;19.77;38.24;102331.94;5053858;28;20029;-64
2022/02/07 11:23:02;;;;;;;8.88;1.40;;;;;;;19.41;38.53;102335.56;5053876;28;20494;-63
2022/02/07 11:25:44;;;;;;;13.93;1.80;;;;;;;19.13;38.09;102351.78;5053761;28;20514;-63
2022/02/07 11:28:26;;;;;;;8.80;2.25;;;;;;;19.37;38.15;102350.44;5053889;28;20490;-64
2022/02/07 11:30:55;;;;;;;4.50;1.40;;;;;;;19.63;37.59;102355.06;5053580;28;20029;-64
2022/02/07 11:33:52;;;;;;;13.60;2.78;;;;;;;19.21;38.00;102363.78;5054028;28;20029;-63
2022/02/07 11:36:25;;;;;;;6.38;1.48;;;;;;;18.93;38.21;102362.84;5040824;28;20556;-63
2022/02/07 11:38:57;;;;;;;;;;;;;;;19.51;37.52;102358.13;5058001;28;20025;-63
2022/02/07 11:41:22;;;;;;;10.68;2.50;;;;;;;20.27;36.85;102352.25;5057526;28;20374;-63
2022/02/07 11:43:47;;;;;;;3.03;2.13;;;;;;;19.95;37.59;102349.16;5057379;28;20040;-64
2022/02/07 11:46:13;;;;;;;8.63;2.05;;;;;;;19.74;38.01;102335.81;5057545;28;20021;-63
2022/02/07 11:48:42;;;;;;;6.55;1.30;;;;;;;19.60;37.90;102351.78;5057126;28;20052;-63
2022/02/07 11:51:18;;;;;;;11.93;2.10;;;;;;;19.25;37.92;102352.47;5057298;28;20029;-63
2022/02/07 11:54:02;;;;;;;7.47;1.95;;;;;;;18.84;38.31;102353.72;5057226;28;20031;-63
2022/02/07 11:59:10;;;;;;;14.30;2.80;;;;;;;18.34;38.65;102354.88;5057045;28;20432;-63
2022/02/07 12:01:54;;;;;;;;;;;;;;;18.12;39.45;102360.56;5057700;28;20406;-63
2022/02/07 12:04:46;;;;;;;7.75;2.50;;;;;;;18.13;39.08;102365.84;5057045;28;19971;-63
2022/02/07 12:07:14;;;;;;;6.45;1.85;;;;;;;18.60;38.17;102366.88;5056385;28;20499;-64
2022/02/07 12:12:37;;;;;;;6.22;1.65;;;;;;;18.36;37.88;102369.16;5056888;28;20029;-63
2022/02/07 12:15:12;;;;;;;6.80;1.67;;;;;;;18.49;38.01;102362.47;5056697;28;20033;-64
2022/02/07 12:17:45;;;;;;;10.63;2.00;;;;;;;18.44;38.15;102356.59;5056532;28;20135;-63
2022/02/07 12:20:13;;;;;;;9.60;2.00;;;;;;;18.20;38.08;102358.84;5056567;28;20037;-63
2022/02/07 12:22:54;;;;;;;5.05;1.65;;;;;;;18.10;38.73;102367.97;5056395;28;20120;-63
2022/02/07 12:25:37;;;;;;;6.93;1.75;;;;;;;18.48;37.95;102368.06;5056714;28;20020;-64
2022/02/07 12:28:04;;;;;;;;;;;;;;;19.33;37.16;102359.88;5056978;28;20025;-63
2022/02/07 12:30:32;;;;;;;8.60;1.13;;;;;;;19.96;36.60;102353.56;5056935;28;19909;-63
2022/02/07 12:33:04;;;;;;;12.23;2.08;;;;;;;20.14;37.49;102351.75;5039294;28;20017;-64
2022/02/07 12:35:30;;;;;;;5.97;1.30;;;;;;;20.44;36.41;102344.22;5056809;28;20458;-64
2022/02/07 12:37:56;;;;;;;3.78;1.05;;;;;;;20.15;36.91;102339.88;5056578;28;20333;-63
2022/02/07 12:40:22;;;;;;;8.60;1.42;;;;;;;20.72;35.71;102340.38;5056198;28;20063;-63
2022/02/07 12:42:50;;;;;;;5.88;1.02;;;;;;;20.30;36.65;102334.75;5056443;28;20025;-64
2022/02/07 12:45:17;;;;;;;2.33;0.93;;;;;;;20.16;37.67;102333.38;5038462;28;20028;-64
2022/02/07 12:47:45;;;;;;;10.80;2.08;;;;;;;20.10;37.09;102339.44;5055732;28;20025;-64
2022/02/07 12:50:17;;;;;;;10.18;2.53;;;;;;;20.14;36.33;102335.41;5056109;28;20044;-64
2022/02/07 12:52:43;;;;;;;6.55;1.67;;;;;;;20.77;35.50;102332.63;5055933;28;20082;-63
2022/02/07 12:55:13;;;;;;;3.00;1.00;;;;;;;21.21;35.63;102347.94;5055976;28;20033;-64
2022/02/07 12:57:39;;;;;;;3.78;0.95;;;;;;;21.51;35.07;102337.50;5038722;28;20028;-64
2022/02/07 13:00:09;;;;;;;9.63;5.55;;;;;;;21.58;35.13;102352.22;5055869;28;20071;-64
2022/02/07 13:02:34;;;;;;;15.77;4.70;;;;;;;21.80;34.57;102343.44;5055618;28;20021;-64
2022/02/07 13:05:00;;;;;;;11.70;3.40;;;;;;;22.02;34.82;102348.31;5055841;28;20021;-64
2022/02/07 13:07:27;;;;;;;18.27;6.00;;;;;;;22.26;33.91;102353.81;5055430;28;20037;-64
2022/02/07 13:09:53;;;;;;;11.30;4.13;;;;;;;22.46;34.68;102349.75;5055579;28;20017;-64
2022/02/07 13:12:54;;;;;;;7.97;3.00;;;;;;;22.44;34.32;102354.53;5055324;28;20048;-63
2022/02/07 13:15:13;;;;;;;7.15;2.72;;;;;;;22.03;34.51;102361.78;5054566;28;20033;-64
2022/02/07 13:17:38;;;;;;;5.95;1.88;;;;;;;22.23;34.54;102347.84;5055287;28;20025;-64
2022/02/07 13:20:05;;;;;;;10.30;3.05;;;;;;;22.15;34.50;102359.59;5037477;28;20039;-64
2022/02/07 13:22:31;;;;;;;5.13;2.22;;;;;;;21.75;33.94;102356.69;5055581;28;20380;-64
2022/02/07 13:24:57;;;;;;;6.70;1.88;;;;;;;21.31;34.75;102370.47;5055510;28;20104;-64
2022/02/07 13:27:24;;;;;;;4.65;1.63;;;;;;;20.93;35.13;102370.88;5055627;28;20032;-64
2022/02/07 13:29:54;;;;;;;3.67;1.70;;;;;;;20.59;34.60;102368.03;5038079;28;20025;-64
2022/02/07 13:32:24;;;;;;;7.90;1.52;;;;;;;20.25;34.62;102381.50;5055420;28;20035;-64
2022/02/07 13:35:03;;;;;;;8.48;1.27;;;;;;;19.90;34.90;102359.66;5055334;28;20050;-64
2022/02/07 13:37:32;;;;;;;7.60;1.45;;;;;;;19.67;35.15;102386.38;5055360;28;20021;-64
2022/02/07 13:40:00;;;;;;;4.85;1.13;;;;;;;19.68;35.36;102398.13;5055521;28;20545;-64
2022/02/07 13:42:29;;;;;;;4.15;1.10;;;;;;;19.90;34.62;102392.28;5055234;28;20536;-64
2022/02/07 13:45:00;;;;;;;5.20;1.90;;;;;;;20.09;34.51;102394.03;5055558;28;20486;-63
2022/02/07 13:47:26;;;;;;;9.07;1.52;;;;;;;20.25;34.33;102386.94;5055270;28;20539;-63
2022/02/07 13:50:09;;;;;;;7.10;1.40;;;;;;;20.18;34.82;102395.84;5054839;28;20052;-63
2022/02/07 13:52:40;;;;;;;4.47;1.38;;;;;;;20.27;34.80;102398.50;5055266;28;20033;-64
2022/02/07 13:55:28;;;;;;;4.07;1.20;;;;;;;20.24;34.52;102416.97;5055062;28;20103;-64
2022/02/07 13:58:14;;;;;;;5.97;2.53;;;;;;;20.36;34.79;102410.34;5054058;28;20071;-64
2022/02/07 14:00:41;;;;;;;7.85;1.60;;;;;;;20.51;34.75;102407.94;5054022;28;20040;-64
2022/02/07 14:03:13;;;;;;;9.57;2.53;;;;;;;20.66;34.83;102412.69;5054692;28;20024;-64
2022/02/07 14:05:41;;;;;;;8.93;2.27;;;;;;;20.77;34.62;102408.88;5055141;28;20386;-64
2022/02/07 14:08:08;;;;;;;2.75;1.20;;;;;;;20.84;34.54;102404.50;5054584;28;20257;-64
2022/02/07 14:10:37;;;;;;;6.63;1.20;;;;;;;20.91;34.84;102405.56;5054703;28;20502;-64
2022/02/07 14:13:05;;;;;;;4.38;1.25;;;;;;;20.92;34.75;102410.03;5037723;28;20029;-64